sensor_id;sensor_type;location;lat;lon;timestamp;P1;durP1;ratioP1;P2;durP2;ratioP2
70365;SDS011;57787;48.216;12.396;2023-07-28T00:01:30;6.15;;;2.50;;
70365;SDS011;57787;48.216;12.396;2023-07-28T00:03:57;4.03;;;2.53;;
70365;SDS011;57787;48.216;12.396;2023-07-28T00:06:26;4.72;;;2.35;;
70365;SDS011;57787;48.216;12.396;2023-07-28T00:08:53;6.18;;;2.47;;
70365;SDS011;57787;48.216;12.396;2023-07-28T00:11:25;3.75;;;2.40;;
70365;SDS011;57787;48.216;12.396;2023-07-28T00:13:52;5.00;;;2.72;;
70365;SDS011;57787;48.216;12.396;2023-07-28T00:18:48;4.05;;;2.70;;
70365;SDS011;57787;48.216;12.396;2023-07-28T00:21:15;7.63;;;2.42;;
70365;SDS011;57787;48.216;12.396;2023-07-28T00:23:42;4.57;;;2.45;;
70365;SDS011;57787;48.216;12.396;2023-07-28T00:26:10;7.85;;;2.75;;
70365;SDS011;57787;48.216;12.396;2023-07-28T00:28:37;3.60;;;2.60;;
70365;SDS011;57787;48.216;12.396;2023-07-28T00:31:04;4.20;;;2.15;;
70365;SDS011;57787;48.216;12.396;2023-07-28T00:33:31;4.53;;;2.63;;
70365;SDS011;57787;48.216;12.396;2023-07-28T00:36:01;5.68;;;2.50;;
70365;SDS011;57787;48.216;12.396;2023-07-28T00:38:31;7.85;;;2.80;;
70365;SDS011;57787;48.216;12.396;2023-07-28T00:40:58;4.53;;;2.65;;
70365;SDS011;57787;48.216;12.396;2023-07-28T00:43:26;5.97;;;2.72;;
70365;SDS011;57787;48.216;12.396;2023-07-28T00:45:53;3.83;;;2.50;;
70365;SDS011;57787;48.216;12.396;2023-07-28T00:48:20;4.05;;;2.70;;
70365;SDS011;57787;48.216;12.396;2023-07-28T00:50:49;4.82;;;2.33;;
70365;SDS011;57787;48.216;12.396;2023-07-28T00:53:17;4.40;;;2.90;;
70365;SDS011;57787;48.216;12.396;2023-07-28T00:55:47;6.70;;;3.30;;
70365;SDS011;57787;48.216;12.396;2023-07-28T00:58:14;6.78;;;3.10;;
70365;SDS011;57787;48.216;12.396;2023-07-28T01:00:42;4.50;;;2.67;;
70365;SDS011;57787;48.216;12.396;2023-07-28T01:08:32;4.15;;;2.30;;
70365;SDS011;57787;48.216;12.396;2023-07-28T01:30:01;3.67;;;2.38;;
70365;SDS011;57787;48.216;12.396;2023-07-28T01:32:29;3.30;;;2.40;;
70365;SDS011;57787;48.216;12.396;2023-07-28T01:48:44;3.38;;;2.60;;
70365;SDS011;57787;48.216;12.396;2023-07-28T01:51:11;4.13;;;2.58;;
70365;SDS011;57787;48.216;12.396;2023-07-28T01:53:43;5.57;;;3.17;;
70365;SDS011;57787;48.216;12.396;2023-07-28T01:56:10;5.60;;;2.90;;
70365;SDS011;57787;48.216;12.396;2023-07-28T01:58:37;4.30;;;2.88;;
70365;SDS011;57787;48.216;12.396;2023-07-28T02:03:46;3.78;;;2.30;;
70365;SDS011;57787;48.216;12.396;2023-07-28T02:08:50;4.05;;;2.33;;
70365;SDS011;57787;48.216;12.396;2023-07-28T02:22:09;5.03;;;2.55;;
70365;SDS011;57787;48.216;12.396;2023-07-28T02:24:38;3.90;;;2.67;;
70365;SDS011;57787;48.216;12.396;2023-07-28T02:27:06;4.50;;;2.78;;
70365;SDS011;57787;48.216;12.396;2023-07-28T02:29:33;4.32;;;2.50;;
70365;SDS011;57787;48.216;12.396;2023-07-28T02:32:01;4.55;;;2.55;;
70365;SDS011;57787;48.216;12.396;2023-07-28T02:34:37;4.28;;;2.45;;
70365;SDS011;57787;48.216;12.396;2023-07-28T02:37:07;6.00;;;2.75;;
70365;SDS011;57787;48.216;12.396;2023-07-28T02:39:33;3.13;;;2.25;;
70365;SDS011;57787;48.216;12.396;2023-07-28T02:42:03;5.03;;;2.83;;
70365;SDS011;57787;48.216;12.396;2023-07-28T02:44:31;5.60;;;2.80;;
70365;SDS011;57787;48.216;12.396;2023-07-28T02:46:58;4.32;;;2.33;;
70365;SDS011;57787;48.216;12.396;2023-07-28T02:49:25;5.40;;;2.78;;
70365;SDS011;57787;48.216;12.396;2023-07-28T02:51:54;5.93;;;2.65;;
70365;SDS011;57787;48.216;12.396;2023-07-28T02:54:21;5.72;;;2.42;;
70365;SDS011;57787;48.216;12.396;2023-07-28T02:56:50;4.10;;;2.97;;
70365;SDS011;57787;48.216;12.396;2023-07-28T02:59:21;4.00;;;2.65;;
70365;SDS011;57787;48.216;12.396;2023-07-28T03:01:49;4.18;;;2.35;;
70365;SDS011;57787;48.216;12.396;2023-07-28T03:04:18;7.63;;;2.30;;
70365;SDS011;57787;48.216;12.396;2023-07-28T03:06:49;4.65;;;2.50;;
70365;SDS011;57787;48.216;12.396;2023-07-28T03:09:17;3.75;;;2.42;;
70365;SDS011;57787;48.216;12.396;2023-07-28T03:11:44;4.10;;;2.50;;
70365;SDS011;57787;48.216;12.396;2023-07-28T03:14:14;5.35;;;2.65;;
70365;SDS011;57787;48.216;12.396;2023-07-28T03:16:42;4.00;;;2.90;;
70365;SDS011;57787;48.216;12.396;2023-07-28T03:19:09;5.68;;;2.22;;
70365;SDS011;57787;48.216;12.396;2023-07-28T03:21:36;4.43;;;2.75;;
70365;SDS011;57787;48.216;12.396;2023-07-28T03:24:07;5.63;;;2.60;;
70365;SDS011;57787;48.216;12.396;2023-07-28T03:26:35;5.40;;;2.72;;
70365;SDS011;57787;48.216;12.396;2023-07-28T03:29:03;5.53;;;2.80;;
70365;SDS011;57787;48.216;12.396;2023-07-28T03:31:31;6.68;;;3.22;;
70365;SDS011;57787;48.216;12.396;2023-07-28T03:34:03;7.90;;;2.80;;
70365;SDS011;57787;48.216;12.396;2023-07-28T03:36:30;5.35;;;2.40;;
70365;SDS011;57787;48.216;12.396;2023-07-28T03:38:58;3.40;;;2.45;;
70365;SDS011;57787;48.216;12.396;2023-07-28T03:41:26;5.65;;;2.60;;
70365;SDS011;57787;48.216;12.396;2023-07-28T03:43:55;5.32;;;3.17;;
70365;SDS011;57787;48.216;12.396;2023-07-28T03:46:22;3.97;;;2.85;;
70365;SDS011;57787;48.216;12.396;2023-07-28T03:48:49;4.10;;;2.45;;
70365;SDS011;57787;48.216;12.396;2023-07-28T03:51:18;3.38;;;2.60;;
70365;SDS011;57787;48.216;12.396;2023-07-28T03:53:45;4.45;;;2.78;;
70365;SDS011;57787;48.216;12.396;2023-07-28T03:56:17;4.53;;;2.80;;
70365;SDS011;57787;48.216;12.396;2023-07-28T03:58:46;9.70;;;2.83;;
70365;SDS011;57787;48.216;12.396;2023-07-28T04:01:13;3.63;;;2.40;;
70365;SDS011;57787;48.216;12.396;2023-07-28T04:03:41;5.30;;;2.40;;
70365;SDS011;57787;48.216;12.396;2023-07-28T04:06:10;5.65;;;2.50;;
70365;SDS011;57787;48.216;12.396;2023-07-28T04:08:43;5.30;;;2.65;;
70365;SDS011;57787;48.216;12.396;2023-07-28T04:11:12;4.15;;;2.28;;
70365;SDS011;57787;48.216;12.396;2023-07-28T04:14:05;3.88;;;2.53;;
70365;SDS011;57787;48.216;12.396;2023-07-28T04:16:32;6.82;;;2.65;;
70365;SDS011;57787;48.216;12.396;2023-07-28T04:19:07;5.15;;;2.72;;
70365;SDS011;57787;48.216;12.396;2023-07-28T04:21:34;3.55;;;2.47;;
70365;SDS011;57787;48.216;12.396;2023-07-28T04:24:07;4.82;;;2.13;;
70365;SDS011;57787;48.216;12.396;2023-07-28T04:26:35;5.60;;;2.50;;
70365;SDS011;57787;48.216;12.396;2023-07-28T04:29:02;5.28;;;2.60;;
70365;SDS011;57787;48.216;12.396;2023-07-28T04:31:30;4.13;;;2.67;;
70365;SDS011;57787;48.216;12.396;2023-07-28T04:33:58;3.97;;;2.60;;
70365;SDS011;57787;48.216;12.396;2023-07-28T04:36:27;4.43;;;2.38;;
70365;SDS011;57787;48.216;12.396;2023-07-28T04:38:54;3.15;;;2.33;;
70365;SDS011;57787;48.216;12.396;2023-07-28T04:41:21;5.90;;;2.63;;
70365;SDS011;57787;48.216;12.396;2023-07-28T04:43:53;4.53;;;2.45;;
70365;SDS011;57787;48.216;12.396;2023-07-28T04:46:21;2.80;;;2.20;;
70365;SDS011;57787;48.216;12.396;2023-07-28T04:48:48;4.85;;;2.15;;
70365;SDS011;57787;48.216;12.396;2023-07-28T04:51:20;5.68;;;2.60;;
70365;SDS011;57787;48.216;12.396;2023-07-28T04:53:47;2.92;;;2.08;;
70365;SDS011;57787;48.216;12.396;2023-07-28T04:56:15;3.72;;;2.35;;
70365;SDS011;57787;48.216;12.396;2023-07-28T04:58:43;6.63;;;2.25;;
70365;SDS011;57787;48.216;12.396;2023-07-28T05:01:10;7.50;;;2.45;;
70365;SDS011;57787;48.216;12.396;2023-07-28T05:03:39;5.22;;;2.22;;
70365;SDS011;57787;48.216;12.396;2023-07-28T05:06:08;3.30;;;1.88;;
70365;SDS011;57787;48.216;12.396;2023-07-28T05:08:35;3.53;;;1.92;;
70365;SDS011;57787;48.216;12.396;2023-07-28T05:11:02;3.55;;;2.22;;
70365;SDS011;57787;48.216;12.396;2023-07-28T05:15:57;5.65;;;2.05;;
70365;SDS011;57787;48.216;12.396;2023-07-28T05:18:26;3.30;;;1.95;;
70365;SDS011;57787;48.216;12.396;2023-07-28T05:20:53;3.80;;;2.60;;
70365;SDS011;57787;48.216;12.396;2023-07-28T05:23:20;3.53;;;2.00;;
70365;SDS011;57787;48.216;12.396;2023-07-28T05:25:47;2.90;;;2.03;;
70365;SDS011;57787;48.216;12.396;2023-07-28T05:28:14;2.95;;;1.70;;
70365;SDS011;57787;48.216;12.396;2023-07-28T05:30:43;2.90;;;1.90;;
70365;SDS011;57787;48.216;12.396;2023-07-28T05:33:11;2.30;;;1.77;;
70365;SDS011;57787;48.216;12.396;2023-07-28T05:35:38;5.82;;;2.00;;
70365;SDS011;57787;48.216;12.396;2023-07-28T05:38:04;5.00;;;1.98;;
70365;SDS011;57787;48.216;12.396;2023-07-28T05:40:33;2.50;;;1.88;;
70365;SDS011;57787;48.216;12.396;2023-07-28T05:43:00;2.85;;;1.63;;
70365;SDS011;57787;48.216;12.396;2023-07-28T05:45:28;4.63;;;2.10;;
70365;SDS011;57787;48.216;12.396;2023-07-28T05:47:54;3.17;;;1.73;;
70365;SDS011;57787;48.216;12.396;2023-07-28T05:50:21;2.67;;;1.80;;
70365;SDS011;57787;48.216;12.396;2023-07-28T05:52:48;3.10;;;1.92;;
70365;SDS011;57787;48.216;12.396;2023-07-28T05:55:15;6.25;;;2.30;;
70365;SDS011;57787;48.216;12.396;2023-07-28T05:57:43;3.22;;;1.73;;
70365;SDS011;57787;48.216;12.396;2023-07-28T06:00:10;3.33;;;1.80;;
70365;SDS011;57787;48.216;12.396;2023-07-28T06:02:38;2.92;;;1.95;;
70365;SDS011;57787;48.216;12.396;2023-07-28T06:05:06;3.85;;;1.42;;
70365;SDS011;57787;48.216;12.396;2023-07-28T06:07:34;3.50;;;1.95;;
70365;SDS011;57787;48.216;12.396;2023-07-28T06:10:01;2.42;;;1.67;;
70365;SDS011;57787;48.216;12.396;2023-07-28T06:12:28;2.83;;;1.90;;
70365;SDS011;57787;48.216;12.396;2023-07-28T06:14:56;3.00;;;1.77;;
70365;SDS011;57787;48.216;12.396;2023-07-28T06:17:23;2.83;;;1.98;;
70365;SDS011;57787;48.216;12.396;2023-07-28T06:19:51;3.13;;;2.00;;
70365;SDS011;57787;48.216;12.396;2023-07-28T06:22:18;3.28;;;2.08;;
70365;SDS011;57787;48.216;12.396;2023-07-28T06:24:45;3.15;;;1.80;;
70365;SDS011;57787;48.216;12.396;2023-07-28T06:27:14;3.55;;;2.00;;
70365;SDS011;57787;48.216;12.396;2023-07-28T06:29:42;4.07;;;2.03;;
70365;SDS011;57787;48.216;12.396;2023-07-28T06:34:39;2.90;;;1.90;;
70365;SDS011;57787;48.216;12.396;2023-07-28T06:37:08;4.22;;;2.00;;
70365;SDS011;57787;48.216;12.396;2023-07-28T06:42:02;2.08;;;1.65;;
70365;SDS011;57787;48.216;12.396;2023-07-28T06:44:32;3.08;;;1.50;;
70365;SDS011;57787;48.216;12.396;2023-07-28T06:46:59;4.57;;;1.92;;
70365;SDS011;57787;48.216;12.396;2023-07-28T06:49:27;2.10;;;1.65;;
70365;SDS011;57787;48.216;12.396;2023-07-28T06:51:55;3.60;;;2.03;;
70365;SDS011;57787;48.216;12.396;2023-07-28T06:54:23;3.95;;;1.80;;
70365;SDS011;57787;48.216;12.396;2023-07-28T06:56:52;4.80;;;2.10;;
70365;SDS011;57787;48.216;12.396;2023-07-28T06:59:19;3.38;;;1.77;;
70365;SDS011;57787;48.216;12.396;2023-07-28T07:01:48;5.82;;;1.95;;
70365;SDS011;57787;48.216;12.396;2023-07-28T07:04:20;2.47;;;1.70;;
70365;SDS011;57787;48.216;12.396;2023-07-28T07:09:14;6.50;;;2.13;;
70365;SDS011;57787;48.216;12.396;2023-07-28T07:11:41;3.47;;;2.17;;
70365;SDS011;57787;48.216;12.396;2023-07-28T07:14:11;4.80;;;1.85;;
70365;SDS011;57787;48.216;12.396;2023-07-28T07:16:38;4.57;;;2.17;;
70365;SDS011;57787;48.216;12.396;2023-07-28T07:19:06;7.65;;;1.95;;
70365;SDS011;57787;48.216;12.396;2023-07-28T07:21:32;3.67;;;2.25;;
70365;SDS011;57787;48.216;12.396;2023-07-28T07:24:00;2.78;;;1.67;;
70365;SDS011;57787;48.216;12.396;2023-07-28T07:26:31;6.88;;;2.40;;
70365;SDS011;57787;48.216;12.396;2023-07-28T07:28:58;4.70;;;1.88;;
70365;SDS011;57787;48.216;12.396;2023-07-28T07:31:25;4.65;;;2.08;;
70365;SDS011;57787;48.216;12.396;2023-07-28T07:33:54;3.10;;;2.22;;
70365;SDS011;57787;48.216;12.396;2023-07-28T07:36:21;3.63;;;2.40;;
70365;SDS011;57787;48.216;12.396;2023-07-28T07:38:48;3.13;;;2.00;;
70365;SDS011;57787;48.216;12.396;2023-07-28T07:41:16;5.38;;;1.83;;
70365;SDS011;57787;48.216;12.396;2023-07-28T07:43:52;3.35;;;1.95;;
70365;SDS011;57787;48.216;12.396;2023-07-28T07:46:26;9.73;;;2.00;;
70365;SDS011;57787;48.216;12.396;2023-07-28T07:48:53;4.95;;;1.90;;
70365;SDS011;57787;48.216;12.396;2023-07-28T07:53:52;3.13;;;1.88;;
70365;SDS011;57787;48.216;12.396;2023-07-28T07:56:20;3.85;;;2.03;;
70365;SDS011;57787;48.216;12.396;2023-07-28T07:58:50;2.90;;;1.58;;
70365;SDS011;57787;48.216;12.396;2023-07-28T08:01:17;3.78;;;1.90;;
70365;SDS011;57787;48.216;12.396;2023-07-28T08:03:48;2.67;;;1.58;;
70365;SDS011;57787;48.216;12.396;2023-07-28T08:06:18;3.65;;;1.92;;
70365;SDS011;57787;48.216;12.396;2023-07-28T08:08:45;2.45;;;1.50;;
70365;SDS011;57787;48.216;12.396;2023-07-28T08:11:13;2.33;;;1.70;;
70365;SDS011;57787;48.216;12.396;2023-07-28T08:13:40;4.78;;;1.80;;
70365;SDS011;57787;48.216;12.396;2023-07-28T08:16:09;2.58;;;1.80;;
70365;SDS011;57787;48.216;12.396;2023-07-28T08:18:36;2.65;;;1.67;;
70365;SDS011;57787;48.216;12.396;2023-07-28T08:21:06;3.53;;;1.70;;
70365;SDS011;57787;48.216;12.396;2023-07-28T08:23:37;3.35;;;1.58;;
70365;SDS011;57787;48.216;12.396;2023-07-28T08:26:12;1.95;;;1.45;;
70365;SDS011;57787;48.216;12.396;2023-07-28T08:28:44;5.28;;;2.13;;
70365;SDS011;57787;48.216;12.396;2023-07-28T08:31:11;2.00;;;1.52;;
70365;SDS011;57787;48.216;12.396;2023-07-28T08:33:43;2.53;;;1.70;;
70365;SDS011;57787;48.216;12.396;2023-07-28T08:36:17;2.10;;;1.65;;
70365;SDS011;57787;48.216;12.396;2023-07-28T08:38:46;2.67;;;1.50;;
70365;SDS011;57787;48.216;12.396;2023-07-28T08:41:15;3.13;;;1.67;;
70365;SDS011;57787;48.216;12.396;2023-07-28T08:43:46;3.45;;;1.50;;
70365;SDS011;57787;48.216;12.396;2023-07-28T08:46:13;2.42;;;1.58;;
70365;SDS011;57787;48.216;12.396;2023-07-28T08:48:46;3.03;;;1.60;;
70365;SDS011;57787;48.216;12.396;2023-07-28T08:51:14;4.28;;;1.52;;
70365;SDS011;57787;48.216;12.396;2023-07-28T08:53:45;5.93;;;1.85;;
70365;SDS011;57787;48.216;12.396;2023-07-28T08:56:12;1.73;;;1.40;;
70365;SDS011;57787;48.216;12.396;2023-07-28T09:01:07;3.15;;;1.60;;
70365;SDS011;57787;48.216;12.396;2023-07-28T09:03:35;2.65;;;1.38;;
70365;SDS011;57787;48.216;12.396;2023-07-28T09:06:07;4.07;;;1.33;;
70365;SDS011;57787;48.216;12.396;2023-07-28T09:08:37;5.20;;;1.60;;
70365;SDS011;57787;48.216;12.396;2023-07-28T09:11:04;2.40;;;1.55;;
70365;SDS011;57787;48.216;12.396;2023-07-28T09:13:38;2.80;;;1.40;;
70365;SDS011;57787;48.216;12.396;2023-07-28T09:16:17;5.93;;;1.70;;
70365;SDS011;57787;48.216;12.396;2023-07-28T09:18:46;2.88;;;1.50;;
70365;SDS011;57787;48.216;12.396;2023-07-28T09:21:16;4.32;;;1.83;;
70365;SDS011;57787;48.216;12.396;2023-07-28T09:23:45;3.72;;;1.40;;
70365;SDS011;57787;48.216;12.396;2023-07-28T09:26:14;3.22;;;1.80;;
70365;SDS011;57787;48.216;12.396;2023-07-28T09:28:42;2.65;;;1.40;;
70365;SDS011;57787;48.216;12.396;2023-07-28T09:31:13;2.33;;;1.45;;
70365;SDS011;57787;48.216;12.396;2023-07-28T09:33:40;2.20;;;1.60;;
70365;SDS011;57787;48.216;12.396;2023-07-28T09:36:13;2.63;;;1.48;;
70365;SDS011;57787;48.216;12.396;2023-07-28T09:38:46;4.75;;;1.63;;
70365;SDS011;57787;48.216;12.396;2023-07-28T09:41:15;2.17;;;1.40;;
70365;SDS011;57787;48.216;12.396;2023-07-28T09:43:45;2.13;;;1.60;;
70365;SDS011;57787;48.216;12.396;2023-07-28T09:46:15;2.08;;;1.30;;
70365;SDS011;57787;48.216;12.396;2023-07-28T09:48:45;4.35;;;1.50;;
70365;SDS011;57787;48.216;12.396;2023-07-28T09:51:22;2.67;;;1.30;;
70365;SDS011;57787;48.216;12.396;2023-07-28T09:54:04;1.65;;;1.30;;
70365;SDS011;57787;48.216;12.396;2023-07-28T09:56:32;3.35;;;1.60;;
70365;SDS011;57787;48.216;12.396;2023-07-28T09:59:01;2.17;;;1.40;;
70365;SDS011;57787;48.216;12.396;2023-07-28T10:01:32;3.50;;;1.85;;
70365;SDS011;57787;48.216;12.396;2023-07-28T10:04:03;1.80;;;1.33;;
70365;SDS011;57787;48.216;12.396;2023-07-28T10:06:31;2.00;;;1.45;;
70365;SDS011;57787;48.216;12.396;2023-07-28T10:09:01;4.43;;;1.50;;
70365;SDS011;57787;48.216;12.396;2023-07-28T10:11:31;2.05;;;1.55;;
70365;SDS011;57787;48.216;12.396;2023-07-28T10:14:00;1.90;;;1.40;;
70365;SDS011;57787;48.216;12.396;2023-07-28T10:16:30;2.28;;;1.30;;
70365;SDS011;57787;48.216;12.396;2023-07-28T10:19:06;3.08;;;1.73;;
70365;SDS011;57787;48.216;12.396;2023-07-28T10:21:42;2.60;;;1.45;;
70365;SDS011;57787;48.216;12.396;2023-07-28T10:24:09;3.67;;;1.38;;
70365;SDS011;57787;48.216;12.396;2023-07-28T10:26:40;1.55;;;1.42;;
70365;SDS011;57787;48.216;12.396;2023-07-28T10:29:12;2.72;;;1.58;;
70365;SDS011;57787;48.216;12.396;2023-07-28T10:36:56;2.22;;;1.50;;
70365;SDS011;57787;48.216;12.396;2023-07-28T10:39:26;3.00;;;1.45;;
70365;SDS011;57787;48.216;12.396;2023-07-28T10:44:36;3.22;;;1.63;;
70365;SDS011;57787;48.216;12.396;2023-07-28T10:47:07;2.88;;;1.70;;
70365;SDS011;57787;48.216;12.396;2023-07-28T10:49:36;6.05;;;1.60;;
70365;SDS011;57787;48.216;12.396;2023-07-28T10:52:04;3.38;;;1.80;;
70365;SDS011;57787;48.216;12.396;2023-07-28T10:57:01;3.85;;;1.42;;
70365;SDS011;57787;48.216;12.396;2023-07-28T10:59:32;2.42;;;1.73;;
70365;SDS011;57787;48.216;12.396;2023-07-28T11:01:59;3.13;;;2.10;;
70365;SDS011;57787;48.216;12.396;2023-07-28T11:04:27;5.05;;;1.48;;
70365;SDS011;57787;48.216;12.396;2023-07-28T11:06:55;2.08;;;1.50;;
70365;SDS011;57787;48.216;12.396;2023-07-28T11:09:23;2.22;;;1.48;;
70365;SDS011;57787;48.216;12.396;2023-07-28T11:11:50;3.20;;;1.63;;
70365;SDS011;57787;48.216;12.396;2023-07-28T11:14:19;4.20;;;2.17;;
70365;SDS011;57787;48.216;12.396;2023-07-28T11:16:49;2.00;;;1.80;;
70365;SDS011;57787;48.216;12.396;2023-07-28T11:19:19;2.95;;;1.63;;
70365;SDS011;57787;48.216;12.396;2023-07-28T11:21:51;4.88;;;1.80;;
70365;SDS011;57787;48.216;12.396;2023-07-28T11:24:21;3.80;;;2.72;;
70365;SDS011;57787;48.216;12.396;2023-07-28T11:26:49;3.35;;;1.88;;
70365;SDS011;57787;48.216;12.396;2023-07-28T11:29:18;2.30;;;1.80;;
70365;SDS011;57787;48.216;12.396;2023-07-28T11:31:47;3.30;;;2.08;;
70365;SDS011;57787;48.216;12.396;2023-07-28T11:34:15;2.00;;;1.42;;
70365;SDS011;57787;48.216;12.396;2023-07-28T11:36:43;2.45;;;1.60;;
70365;SDS011;57787;48.216;12.396;2023-07-28T11:39:10;2.88;;;1.48;;
70365;SDS011;57787;48.216;12.396;2023-07-28T11:41:38;2.47;;;1.75;;
70365;SDS011;57787;48.216;12.396;2023-07-28T11:44:06;3.85;;;2.00;;
70365;SDS011;57787;48.216;12.396;2023-07-28T11:51:53;6.82;;;2.08;;
70365;SDS011;57787;48.216;12.396;2023-07-28T11:54:22;4.40;;;1.80;;
70365;SDS011;57787;48.216;12.396;2023-07-28T11:56:53;2.70;;;1.60;;
70365;SDS011;57787;48.216;12.396;2023-07-28T11:59:21;3.08;;;1.70;;
70365;SDS011;57787;48.216;12.396;2023-07-28T12:01:58;3.83;;;1.60;;
70365;SDS011;57787;48.216;12.396;2023-07-28T12:04:39;1.83;;;1.38;;
70365;SDS011;57787;48.216;12.396;2023-07-28T12:07:11;3.67;;;1.60;;
70365;SDS011;57787;48.216;12.396;2023-07-28T12:12:30;2.50;;;1.73;;
70365;SDS011;57787;48.216;12.396;2023-07-28T12:15:17;1.88;;;1.60;;
70365;SDS011;57787;48.216;12.396;2023-07-28T12:20:57;4.65;;;1.70;;
70365;SDS011;57787;48.216;12.396;2023-07-28T12:23:23;2.17;;;1.52;;
70365;SDS011;57787;48.216;12.396;2023-07-28T12:25:53;4.95;;;1.50;;
70365;SDS011;57787;48.216;12.396;2023-07-28T12:28:22;2.03;;;1.40;;
70365;SDS011;57787;48.216;12.396;2023-07-28T12:30:49;1.65;;;1.38;;
70365;SDS011;57787;48.216;12.396;2023-07-28T12:33:18;6.93;;;2.33;;
70365;SDS011;57787;48.216;12.396;2023-07-28T12:35:47;2.53;;;1.33;;
70365;SDS011;57787;48.216;12.396;2023-07-28T12:38:16;2.30;;;1.40;;
70365;SDS011;57787;48.216;12.396;2023-07-28T12:40:46;3.33;;;1.70;;
70365;SDS011;57787;48.216;12.396;2023-07-28T12:43:16;4.18;;;1.63;;
70365;SDS011;57787;48.216;12.396;2023-07-28T12:45:46;3.95;;;1.63;;
70365;SDS011;57787;48.216;12.396;2023-07-28T12:48:16;1.80;;;1.50;;
70365;SDS011;57787;48.216;12.396;2023-07-28T12:50:47;5.65;;;1.65;;
70365;SDS011;57787;48.216;12.396;2023-07-28T12:55:48;2.25;;;1.60;;
70365;SDS011;57787;48.216;12.396;2023-07-28T12:58:18;3.50;;;1.55;;
70365;SDS011;57787;48.216;12.396;2023-07-28T13:00:49;3.35;;;1.88;;
70365;SDS011;57787;48.216;12.396;2023-07-28T13:03:21;2.17;;;1.85;;
70365;SDS011;57787;48.216;12.396;2023-07-28T13:05:48;1.90;;;1.67;;
70365;SDS011;57787;48.216;12.396;2023-07-28T13:08:15;5.95;;;1.70;;
70365;SDS011;57787;48.216;12.396;2023-07-28T13:10:43;3.00;;;1.75;;
70365;SDS011;57787;48.216;12.396;2023-07-28T13:13:13;2.08;;;1.67;;
70365;SDS011;57787;48.216;12.396;2023-07-28T13:15:40;2.33;;;1.67;;
70365;SDS011;57787;48.216;12.396;2023-07-28T13:18:07;2.38;;;1.70;;
70365;SDS011;57787;48.216;12.396;2023-07-28T13:20:35;5.18;;;1.75;;
70365;SDS011;57787;48.216;12.396;2023-07-28T13:23:03;4.07;;;1.65;;
70365;SDS011;57787;48.216;12.396;2023-07-28T13:25:30;4.25;;;1.52;;
70365;SDS011;57787;48.216;12.396;2023-07-28T13:27:57;2.80;;;1.83;;
70365;SDS011;57787;48.216;12.396;2023-07-28T13:32:54;3.15;;;1.70;;
70365;SDS011;57787;48.216;12.396;2023-07-28T13:35:21;2.25;;;1.55;;
70365;SDS011;57787;48.216;12.396;2023-07-28T13:40:14;2.50;;;1.80;;
70365;SDS011;57787;48.216;12.396;2023-07-28T13:42:43;2.53;;;1.50;;
70365;SDS011;57787;48.216;12.396;2023-07-28T13:47:37;2.45;;;1.63;;
70365;SDS011;57787;48.216;12.396;2023-07-28T13:50:05;3.08;;;1.80;;
70365;SDS011;57787;48.216;12.396;2023-07-28T13:52:35;3.25;;;1.88;;
70365;SDS011;57787;48.216;12.396;2023-07-28T13:55:02;2.97;;;1.98;;
70365;SDS011;57787;48.216;12.396;2023-07-28T13:57:38;2.55;;;1.63;;
70365;SDS011;57787;48.216;12.396;2023-07-28T14:00:06;2.10;;;1.60;;
70365;SDS011;57787;48.216;12.396;2023-07-28T14:02:36;4.35;;;1.90;;
70365;SDS011;57787;48.216;12.396;2023-07-28T14:05:03;3.10;;;1.65;;
70365;SDS011;57787;48.216;12.396;2023-07-28T14:07:34;2.17;;;1.63;;
70365;SDS011;57787;48.216;12.396;2023-07-28T14:10:03;2.50;;;1.60;;
70365;SDS011;57787;48.216;12.396;2023-07-28T14:12:33;2.45;;;1.80;;
70365;SDS011;57787;48.216;12.396;2023-07-28T14:14:59;5.78;;;1.88;;
70365;SDS011;57787;48.216;12.396;2023-07-28T14:19:53;3.70;;;1.77;;
70365;SDS011;57787;48.216;12.396;2023-07-28T14:24:47;1.75;;;1.45;;
70365;SDS011;57787;48.216;12.396;2023-07-28T14:27:15;3.30;;;1.92;;
70365;SDS011;57787;48.216;12.396;2023-07-28T14:29:42;3.03;;;1.80;;
70365;SDS011;57787;48.216;12.396;2023-07-28T14:32:09;3.83;;;1.92;;
70365;SDS011;57787;48.216;12.396;2023-07-28T14:37:04;5.57;;;2.20;;
70365;SDS011;57787;48.216;12.396;2023-07-28T14:39:33;3.60;;;1.85;;
70365;SDS011;57787;48.216;12.396;2023-07-28T14:42:02;5.07;;;1.80;;
70365;SDS011;57787;48.216;12.396;2023-07-28T14:44:33;2.08;;;1.63;;
70365;SDS011;57787;48.216;12.396;2023-07-28T14:46:59;3.53;;;1.88;;
70365;SDS011;57787;48.216;12.396;2023-07-28T14:49:26;3.38;;;1.80;;
70365;SDS011;57787;48.216;12.396;2023-07-28T14:51:55;3.45;;;2.10;;
70365;SDS011;57787;48.216;12.396;2023-07-28T14:54:21;3.42;;;1.80;;
70365;SDS011;57787;48.216;12.396;2023-07-28T14:56:49;7.40;;;2.10;;
70365;SDS011;57787;48.216;12.396;2023-07-28T14:59:17;3.13;;;1.88;;
70365;SDS011;57787;48.216;12.396;2023-07-28T15:01:44;4.35;;;2.00;;
70365;SDS011;57787;48.216;12.396;2023-07-28T15:04:13;2.70;;;1.90;;
70365;SDS011;57787;48.216;12.396;2023-07-28T15:06:42;5.10;;;2.10;;
70365;SDS011;57787;48.216;12.396;2023-07-28T15:09:11;3.92;;;1.90;;
70365;SDS011;57787;48.216;12.396;2023-07-28T15:14:04;2.28;;;1.65;;
70365;SDS011;57787;48.216;12.396;2023-07-28T15:16:33;3.75;;;1.63;;
70365;SDS011;57787;48.216;12.396;2023-07-28T15:21:27;4.10;;;2.20;;
70365;SDS011;57787;48.216;12.396;2023-07-28T15:23:56;4.72;;;1.98;;
70365;SDS011;57787;48.216;12.396;2023-07-28T15:26:23;3.58;;;1.90;;
70365;SDS011;57787;48.216;12.396;2023-07-28T15:28:50;4.82;;;1.63;;
70365;SDS011;57787;48.216;12.396;2023-07-28T15:31:21;4.75;;;2.17;;
70365;SDS011;57787;48.216;12.396;2023-07-28T15:33:48;7.20;;;2.00;;
70365;SDS011;57787;48.216;12.396;2023-07-28T15:36:15;4.18;;;2.20;;
70365;SDS011;57787;48.216;12.396;2023-07-28T15:41:10;2.33;;;2.00;;
70365;SDS011;57787;48.216;12.396;2023-07-28T15:43:38;3.42;;;2.05;;
70365;SDS011;57787;48.216;12.396;2023-07-28T15:46:05;4.05;;;2.10;;
70365;SDS011;57787;48.216;12.396;2023-07-28T15:48:33;2.75;;;1.70;;
70365;SDS011;57787;48.216;12.396;2023-07-28T15:51:01;2.78;;;1.85;;
70365;SDS011;57787;48.216;12.396;2023-07-28T15:53:29;2.70;;;1.73;;
70365;SDS011;57787;48.216;12.396;2023-07-28T15:55:56;2.95;;;1.05;;
70365;SDS011;57787;48.216;12.396;2023-07-28T15:58:22;1.73;;;0.63;;
70365;SDS011;57787;48.216;12.396;2023-07-28T16:00:49;3.40;;;0.68;;
70365;SDS011;57787;48.216;12.396;2023-07-28T16:03:16;1.35;;;0.60;;
70365;SDS011;57787;48.216;12.396;2023-07-28T16:05:43;1.35;;;0.60;;
70365;SDS011;57787;48.216;12.396;2023-07-28T16:08:11;1.63;;;0.90;;
70365;SDS011;57787;48.216;12.396;2023-07-28T16:10:38;2.15;;;1.00;;
70365;SDS011;57787;48.216;12.396;2023-07-28T16:13:05;2.80;;;0.80;;
70365;SDS011;57787;48.216;12.396;2023-07-28T16:15:32;2.00;;;0.90;;
70365;SDS011;57787;48.216;12.396;2023-07-28T16:17:59;0.75;;;0.60;;
70365;SDS011;57787;48.216;12.396;2023-07-28T16:22:54;1.70;;;0.70;;
70365;SDS011;57787;48.216;12.396;2023-07-28T16:25:21;2.10;;;0.77;;
70365;SDS011;57787;48.216;12.396;2023-07-28T16:27:49;1.13;;;0.63;;
70365;SDS011;57787;48.216;12.396;2023-07-28T16:30:16;2.42;;;0.80;;
70365;SDS011;57787;48.216;12.396;2023-07-28T16:32:44;0.85;;;0.80;;
70365;SDS011;57787;48.216;12.396;2023-07-28T16:35:12;1.52;;;0.73;;
70365;SDS011;57787;48.216;12.396;2023-07-28T16:37:39;1.17;;;0.80;;
70365;SDS011;57787;48.216;12.396;2023-07-28T16:40:06;1.13;;;0.85;;
70365;SDS011;57787;48.216;12.396;2023-07-28T16:42:33;1.73;;;0.80;;